createdAt,value
2023-09-06T00:00:25.211Z,75.90
2023-09-06T00:02:51.796Z,75.90
2023-09-06T00:05:18.446Z,76.00
2023-09-06T00:07:44.995Z,76.10
2023-09-06T00:10:11.530Z,76.00
2023-09-06T00:12:38.166Z,76.00
2023-09-06T00:15:05.212Z,76.10
2023-09-06T00:17:32.102Z,75.90
2023-09-06T00:19:58.740Z,76.10
2023-09-06T00:22:25.361Z,76.00
2023-09-06T00:24:51.972Z,76.00
2023-09-06T00:27:18.598Z,75.80
2023-09-06T00:29:45.139Z,75.80
2023-09-06T00:32:11.678Z,75.70
2023-09-06T00:34:38.223Z,76.00
2023-09-06T00:37:04.784Z,75.90
2023-09-06T00:39:31.453Z,75.60
2023-09-06T00:41:58.081Z,75.80
2023-09-06T00:44:24.626Z,75.80
2023-09-06T00:46:58.311Z,75.90
2023-09-06T00:49:24.877Z,75.80
2023-09-06T00:51:51.472Z,75.70
2023-09-06T00:54:18.027Z,75.80
2023-09-06T00:56:44.547Z,75.90
2023-09-06T00:59:11.053Z,75.80
2023-09-06T01:01:37.664Z,75.80
2023-09-06T01:04:04.380Z,75.70
2023-09-06T01:06:30.930Z,75.90
2023-09-06T01:08:57.524Z,75.90
2023-09-06T01:11:24.115Z,75.90
2023-09-06T01:13:50.654Z,76.00
2023-09-06T01:16:20.137Z,75.70
2023-09-06T01:18:46.815Z,75.70
2023-09-06T01:21:13.415Z,75.70
2023-09-06T01:23:39.975Z,75.80
2023-09-06T01:26:06.624Z,75.70
2023-09-06T01:28:33.245Z,75.60
2023-09-06T01:30:59.841Z,75.60
2023-09-06T01:33:26.419Z,75.60
2023-09-06T01:35:52.979Z,75.50
2023-09-06T01:38:19.516Z,75.50
2023-09-06T01:40:46.064Z,75.50
2023-09-06T01:43:12.744Z,75.70
2023-09-06T01:45:39.392Z,75.70
2023-09-06T01:48:05.948Z,75.60
2023-09-06T01:50:32.511Z,75.60
2023-09-06T01:52:59.059Z,75.60
2023-09-06T01:55:25.619Z,75.60
2023-09-06T01:57:52.204Z,75.40
2023-09-06T02:00:18.779Z,75.60
2023-09-06T02:02:45.401Z,75.50
2023-09-06T02:05:12.079Z,75.40
2023-09-06T02:07:38.614Z,75.50
2023-09-06T02:10:05.305Z,75.40
2023-09-06T02:12:31.959Z,75.50
2023-09-06T02:14:58.504Z,75.30
2023-09-06T02:17:26.158Z,75.10
2023-09-06T02:19:52.720Z,75.00
2023-09-06T02:22:19.381Z,75.30
2023-09-06T02:24:45.962Z,75.10
2023-09-06T02:27:12.592Z,75.10
2023-09-06T02:29:39.114Z,75.30
2023-09-06T02:32:05.861Z,74.90
2023-09-06T02:34:32.527Z,75.20
2023-09-06T02:36:59.112Z,75.00
2023-09-06T02:39:25.689Z,75.00
2023-09-06T02:41:52.239Z,74.80
2023-09-06T02:44:18.772Z,75.00
2023-09-06T02:46:45.361Z,74.80
2023-09-06T02:49:11.917Z,75.30
2023-09-06T02:51:38.461Z,75.10
2023-09-06T02:54:05.019Z,74.90
2023-09-06T02:56:31.582Z,74.90
2023-09-06T02:58:58.141Z,74.70
2023-09-06T03:01:24.974Z,74.60
2023-09-06T03:03:51.747Z,74.80
2023-09-06T03:06:18.432Z,74.80
2023-09-06T03:08:44.970Z,74.80
2023-09-06T03:11:11.530Z,74.70
2023-09-06T03:13:38.109Z,74.60
2023-09-06T03:16:06.071Z,74.80
2023-09-06T03:18:32.745Z,74.60
2023-09-06T03:20:59.321Z,74.70
2023-09-06T03:23:26.098Z,74.60
2023-09-06T03:25:52.728Z,74.60
2023-09-06T03:28:19.292Z,74.50
2023-09-06T03:30:45.877Z,74.70
2023-09-06T03:35:56.292Z,74.70
2023-09-06T03:38:22.876Z,74.80
2023-09-06T03:40:49.434Z,74.70
2023-09-06T03:43:20.227Z,74.70
2023-09-06T03:45:46.771Z,74.70
2023-09-06T03:48:13.453Z,74.40
2023-09-06T03:50:40.113Z,74.40
2023-09-06T03:53:06.691Z,74.40
2023-09-06T03:55:34.983Z,74.30
2023-09-06T03:58:02.756Z,74.40
2023-09-06T04:00:29.297Z,74.30
2023-09-06T04:02:56.085Z,74.40
2023-09-06T04:05:24.896Z,74.40
2023-09-06T04:07:51.532Z,74.30
2023-09-06T04:10:18.121Z,74.20
2023-09-06T04:12:44.695Z,74.20
2023-09-06T04:15:11.226Z,74.30
2023-09-06T04:17:37.901Z,74.20
2023-09-06T04:20:04.489Z,74.60
2023-09-06T04:22:31.030Z,74.30
2023-09-06T04:24:57.583Z,74.20
2023-09-06T04:27:24.145Z,74.10
2023-09-06T04:29:50.682Z,74.20
2023-09-06T04:32:17.265Z,74.00
2023-09-06T04:34:43.811Z,74.00
2023-09-06T04:37:10.369Z,74.10
2023-09-06T04:39:37.063Z,74.10
2023-09-06T04:42:03.603Z,74.10
2023-09-06T04:44:30.173Z,74.00
2023-09-06T04:46:56.777Z,74.00
2023-09-06T04:49:23.342Z,74.00
2023-09-06T04:51:49.864Z,74.10
2023-09-06T04:54:16.411Z,73.90
2023-09-06T04:56:42.984Z,73.90
2023-09-06T04:59:09.581Z,73.80
2023-09-06T05:01:36.154Z,73.80
2023-09-06T05:04:02.791Z,73.80
2023-09-06T05:06:29.339Z,73.90
2023-09-06T05:08:55.948Z,73.90
2023-09-06T05:11:22.488Z,73.90
2023-09-06T05:13:49.007Z,74.00
2023-09-06T05:16:15.600Z,73.80
2023-09-06T05:18:42.153Z,73.80
2023-09-06T05:21:08.720Z,73.90
2023-09-06T05:23:35.243Z,73.90
2023-09-06T05:26:01.858Z,73.80
2023-09-06T05:28:28.629Z,73.80
2023-09-06T05:30:55.590Z,73.90
2023-09-06T05:33:22.112Z,73.80
2023-09-06T05:35:48.641Z,73.80
2023-09-06T05:38:15.163Z,73.90
2023-09-06T05:40:41.754Z,73.90
2023-09-06T05:43:08.367Z,73.90
2023-09-06T05:45:34.880Z,73.90
2023-09-06T05:48:01.537Z,73.80
2023-09-06T05:50:28.209Z,73.70
2023-09-06T05:52:54.767Z,73.80
2023-09-06T05:55:21.350Z,73.70
2023-09-06T05:57:47.901Z,73.70
2023-09-06T06:00:14.544Z,73.80
2023-09-06T06:02:41.197Z,73.70
2023-09-06T06:05:07.918Z,73.70
2023-09-06T06:07:34.462Z,73.80
2023-09-06T06:10:01.037Z,73.60
2023-09-06T06:12:27.697Z,73.60
2023-09-06T06:14:54.264Z,73.50
2023-09-06T06:17:20.813Z,73.50
2023-09-06T06:19:47.471Z,73.50
2023-09-06T06:22:17.159Z,73.30
2023-09-06T06:24:43.732Z,73.60
2023-09-06T06:27:10.553Z,73.40
2023-09-06T06:29:37.322Z,73.40
2023-09-06T06:32:04.004Z,73.40
2023-09-06T06:34:30.589Z,73.50
2023-09-06T06:36:57.152Z,73.30
2023-09-06T06:39:23.775Z,73.50
2023-09-06T06:41:50.353Z,73.40
2023-09-06T06:44:16.915Z,73.40
2023-09-06T06:46:43.556Z,73.30
2023-09-06T06:49:10.098Z,73.40
2023-09-06T06:51:38.983Z,73.20
2023-09-06T06:54:05.849Z,73.40
2023-09-06T06:56:32.407Z,73.50
2023-09-06T06:58:59.029Z,74.10
2023-09-06T07:01:25.751Z,73.30
2023-09-06T07:03:52.381Z,73.40
2023-09-06T07:06:18.991Z,73.40
2023-09-06T07:08:45.557Z,73.50
2023-09-06T07:11:13.844Z,73.50
2023-09-06T07:13:41.733Z,73.30
2023-09-06T07:16:08.426Z,73.50
2023-09-06T07:18:35.136Z,73.50
2023-09-06T07:21:01.742Z,73.50
2023-09-06T07:23:28.366Z,73.50
2023-09-06T07:25:54.936Z,73.60
2023-09-06T07:28:21.520Z,73.60
2023-09-06T07:30:48.079Z,73.60
2023-09-06T07:33:14.663Z,73.60
2023-09-06T07:35:41.253Z,73.70
2023-09-06T07:38:07.843Z,73.70
2023-09-06T07:40:34.387Z,73.70
2023-09-06T07:43:00.902Z,73.60
2023-09-06T07:45:27.450Z,73.70
2023-09-06T07:47:54.681Z,73.70
2023-09-06T07:50:21.313Z,73.80
2023-09-06T07:52:47.895Z,73.70
2023-09-06T07:55:14.421Z,73.70
2023-09-06T07:57:40.964Z,73.80
2023-09-06T08:00:07.546Z,73.80
2023-09-06T08:02:34.133Z,73.90
2023-09-06T08:05:00.784Z,73.80
2023-09-06T08:07:27.350Z,74.60
2023-09-06T08:09:53.888Z,74.00
2023-09-06T08:12:20.474Z,74.00
2023-09-06T08:14:47.084Z,74.00
2023-09-06T08:17:13.639Z,74.00
2023-09-06T08:22:29.370Z,74.00
2023-09-06T08:25:02.289Z,74.20
2023-09-06T08:27:28.816Z,74.00
2023-09-06T08:29:55.439Z,74.20
2023-09-06T08:32:22.136Z,74.10
2023-09-06T08:34:48.775Z,74.20
2023-09-06T08:37:18.089Z,74.20
2023-09-06T08:39:44.644Z,74.20
2023-09-06T08:42:11.226Z,74.10
2023-09-06T08:44:37.884Z,74.10
2023-09-06T08:47:04.523Z,74.40
2023-09-06T08:49:31.170Z,74.30
2023-09-06T08:51:57.687Z,74.30
2023-09-06T08:54:24.267Z,74.20
2023-09-06T08:56:50.862Z,74.40
2023-09-06T08:59:17.387Z,74.30
2023-09-06T09:01:44.050Z,74.40
2023-09-06T09:04:10.824Z,74.40
2023-09-06T09:06:37.512Z,74.40
2023-09-06T09:09:04.087Z,74.40
2023-09-06T09:14:10.952Z,74.50
2023-09-06T09:16:37.552Z,74.50
2023-09-06T09:19:04.209Z,75.10
2023-09-06T09:21:30.770Z,74.40
2023-09-06T09:23:57.307Z,74.30
2023-09-06T09:26:23.834Z,74.20
2023-09-06T09:28:50.353Z,74.30
2023-09-06T09:31:17.030Z,74.20
2023-09-06T09:33:46.074Z,74.30
2023-09-06T09:36:12.941Z,74.30
2023-09-06T09:38:39.531Z,74.40
2023-09-06T09:41:07.106Z,74.40
2023-09-06T09:43:34.958Z,74.50
2023-09-06T09:46:02.287Z,74.50
2023-09-06T09:48:28.986Z,74.60
2023-09-06T09:50:55.579Z,74.40
2023-09-06T09:53:22.809Z,74.50
2023-09-06T09:55:49.581Z,74.50
2023-09-06T09:58:16.141Z,74.50
2023-09-06T10:00:42.858Z,74.50
2023-09-06T10:03:09.786Z,74.60
2023-09-06T10:05:36.576Z,74.60
2023-09-06T10:08:03.537Z,74.60
2023-09-06T10:10:30.164Z,74.60
2023-09-06T10:13:02.637Z,74.60
2023-09-06T10:15:29.294Z,74.70
2023-09-06T10:17:55.855Z,74.70
2023-09-06T10:20:22.419Z,74.50
2023-09-06T10:22:48.993Z,74.60
2023-09-06T10:25:15.588Z,74.50
2023-09-06T10:27:42.183Z,74.70
2023-09-06T10:30:08.777Z,74.70
2023-09-06T10:32:35.361Z,74.60
2023-09-06T10:35:02.203Z,74.60
2023-09-06T10:37:28.781Z,74.60
2023-09-06T10:39:58.338Z,74.60
2023-09-06T10:42:24.888Z,74.50
2023-09-06T10:44:51.447Z,74.50
2023-09-06T10:47:20.682Z,74.50
2023-09-06T10:49:47.260Z,74.50
2023-09-06T10:52:13.800Z,74.70
2023-09-06T10:54:40.687Z,74.60
2023-09-06T10:57:07.513Z,74.40
2023-09-06T10:59:34.082Z,74.40
2023-09-06T11:02:00.728Z,74.50
2023-09-06T11:04:27.462Z,74.50
2023-09-06T11:06:54.230Z,74.50
2023-09-06T11:09:20.832Z,74.40
2023-09-06T11:11:47.370Z,74.50
2023-09-06T11:14:13.912Z,74.60
2023-09-06T11:16:40.434Z,74.60
2023-09-06T11:19:07.011Z,75.40
2023-09-06T11:21:33.622Z,74.60
2023-09-06T11:24:00.172Z,74.70
2023-09-06T11:26:26.718Z,74.70
2023-09-06T11:28:53.340Z,74.80
2023-09-06T11:31:20.650Z,74.80
2023-09-06T11:33:47.306Z,74.70
2023-09-06T11:36:13.859Z,74.80
2023-09-06T11:38:40.414Z,74.80
2023-09-06T11:41:06.936Z,74.90
2023-09-06T11:43:33.562Z,74.90
2023-09-06T11:46:03.072Z,74.80
2023-09-06T11:48:29.795Z,74.90
2023-09-06T11:50:56.525Z,74.90
2023-09-06T11:53:23.047Z,74.90
2023-09-06T11:55:49.578Z,75.00
2023-09-06T11:58:16.117Z,74.90
2023-09-06T12:00:42.695Z,74.90
2023-09-06T12:03:09.547Z,74.80
2023-09-06T12:05:47.619Z,74.90
2023-09-06T12:08:16.147Z,75.00
2023-09-06T12:10:42.662Z,75.00
2023-09-06T12:13:09.230Z,74.90
2023-09-06T12:15:35.760Z,74.90
2023-09-06T12:18:05.276Z,74.90
2023-09-06T12:20:31.923Z,74.90
2023-09-06T12:22:58.474Z,75.00
2023-09-06T12:25:25.105Z,75.00
2023-09-06T12:27:51.670Z,74.80
2023-09-06T12:30:18.212Z,75.00
2023-09-06T12:32:44.885Z,75.00
2023-09-06T12:35:12.674Z,74.90
2023-09-06T12:37:42.155Z,75.00
2023-09-06T12:40:08.788Z,74.90
2023-09-06T12:42:35.348Z,75.00
2023-09-06T12:45:02.035Z,75.00
2023-09-06T12:47:28.717Z,75.00
2023-09-06T12:49:55.306Z,74.90
2023-09-06T12:52:21.865Z,74.90
2023-09-06T12:54:55.920Z,75.00
2023-09-06T12:57:22.571Z,74.90
2023-09-06T12:59:49.136Z,74.90
2023-09-06T13:02:15.725Z,74.80
2023-09-06T13:04:42.460Z,74.80
2023-09-06T13:07:09.178Z,75.50
2023-09-06T13:09:35.696Z,74.80
2023-09-06T13:12:02.247Z,74.80
2023-09-06T13:14:28.774Z,74.80
2023-09-06T13:16:55.437Z,74.80
2023-09-06T13:19:22.052Z,74.80
2023-09-06T13:21:48.623Z,74.70
2023-09-06T13:24:15.172Z,74.60
2023-09-06T13:26:41.751Z,74.60
2023-09-06T13:29:08.321Z,74.60
2023-09-06T13:31:34.981Z,74.60
2023-09-06T13:34:01.604Z,74.60
2023-09-06T13:36:28.113Z,74.60
2023-09-06T13:38:54.670Z,74.50
2023-09-06T13:41:21.258Z,74.60
2023-09-06T13:43:47.810Z,74.40
2023-09-06T13:46:14.402Z,74.60
2023-09-06T13:48:41.002Z,74.50
2023-09-06T13:51:07.626Z,74.40
2023-09-06T13:53:34.212Z,74.40
2023-09-06T13:56:00.742Z,74.40
2023-09-06T13:58:27.335Z,74.50
2023-09-06T14:00:53.917Z,74.30
2023-09-06T14:03:20.605Z,74.40
2023-09-06T14:05:47.203Z,74.40
2023-09-06T14:08:13.828Z,74.40
2023-09-06T14:10:40.480Z,74.40
2023-09-06T14:13:07.048Z,74.50
2023-09-06T14:15:33.634Z,74.40
2023-09-06T14:18:00.336Z,74.20
2023-09-06T14:20:26.970Z,74.40
2023-09-06T14:22:53.701Z,74.40
2023-09-06T14:25:20.324Z,75.10
2023-09-06T14:27:46.884Z,74.30
2023-09-06T14:30:13.468Z,74.30
2023-09-06T14:32:44.928Z,74.20
2023-09-06T14:35:11.609Z,74.20
2023-09-06T14:37:38.332Z,74.10
2023-09-06T14:40:04.885Z,74.10
2023-09-06T14:42:31.425Z,74.10
2023-09-06T14:44:57.972Z,74.10
2023-09-06T14:47:24.655Z,74.00
2023-09-06T14:49:51.226Z,74.00
2023-09-06T14:52:17.760Z,74.00
2023-09-06T14:54:44.516Z,73.90
2023-09-06T14:57:11.128Z,73.90
2023-09-06T14:59:37.751Z,73.80
2023-09-06T15:02:04.365Z,73.80
2023-09-06T15:04:30.951Z,73.80
2023-09-06T15:06:59.810Z,73.90
2023-09-06T15:09:26.995Z,74.00
2023-09-06T15:11:53.590Z,74.00
2023-09-06T15:14:20.133Z,74.00
2023-09-06T15:16:46.720Z,74.00
2023-09-06T15:19:13.342Z,74.10
2023-09-06T15:21:39.979Z,74.00
2023-09-06T15:24:06.544Z,74.20
2023-09-06T15:26:33.088Z,74.20
2023-09-06T15:28:59.636Z,74.30
2023-09-06T15:31:26.280Z,74.40
2023-09-06T15:33:52.913Z,74.30
2023-09-06T15:36:19.644Z,74.40
2023-09-06T15:38:46.203Z,74.40
2023-09-06T15:41:14.914Z,74.50
2023-09-06T15:43:41.474Z,74.50
2023-09-06T15:46:08.050Z,74.50
2023-09-06T15:48:34.587Z,74.60
2023-09-06T15:51:01.248Z,74.60
2023-09-06T15:53:27.993Z,74.70
2023-09-06T15:55:54.584Z,74.80
2023-09-06T15:58:21.112Z,74.80
2023-09-06T16:00:47.662Z,74.80
2023-09-06T16:03:14.238Z,74.90
2023-09-06T16:05:40.854Z,74.90
2023-09-06T16:08:07.392Z,75.00
2023-09-06T16:10:33.932Z,75.00
2023-09-06T16:13:00.456Z,75.10
2023-09-06T16:15:26.972Z,75.10
2023-09-06T16:17:53.608Z,75.10
2023-09-06T16:20:20.202Z,75.10
2023-09-06T16:22:46.723Z,75.30
2023-09-06T16:25:13.232Z,75.30
2023-09-06T16:27:39.752Z,75.30
2023-09-06T16:30:07.094Z,75.30
2023-09-06T16:32:34.178Z,75.40
2023-09-06T16:35:00.961Z,75.40
2023-09-06T16:37:27.487Z,75.40
2023-09-06T16:39:54.090Z,75.40
2023-09-06T16:42:20.656Z,75.40
2023-09-06T16:44:47.270Z,75.30
2023-09-06T16:47:13.945Z,75.60
2023-09-06T16:49:40.553Z,75.50
2023-09-06T16:52:07.118Z,75.50
2023-09-06T16:54:33.679Z,76.30
2023-09-06T16:57:00.203Z,75.60
2023-09-06T16:59:26.732Z,75.60
2023-09-06T17:01:53.262Z,75.60
2023-09-06T17:04:19.835Z,75.60
2023-09-06T17:06:46.359Z,76.20
2023-09-06T17:09:12.891Z,75.50
2023-09-06T17:11:39.408Z,75.50
2023-09-06T17:14:05.957Z,75.50
2023-09-06T17:16:32.629Z,75.40
2023-09-06T17:18:59.222Z,75.30
2023-09-06T17:21:33.163Z,75.40
2023-09-06T17:24:03.986Z,75.40
2023-09-06T17:26:30.892Z,75.40
2023-09-06T17:28:57.414Z,75.30
2023-09-06T17:31:23.966Z,75.20
2023-09-06T17:33:50.509Z,75.30
2023-09-06T17:36:17.034Z,75.30
2023-09-06T17:38:43.554Z,75.40
2023-09-06T17:41:10.189Z,75.30
2023-09-06T17:43:36.765Z,75.30
2023-09-06T17:46:03.344Z,75.30
2023-09-06T17:48:30.415Z,75.30
2023-09-06T17:50:57.582Z,75.30
2023-09-06T17:53:24.246Z,75.30
2023-09-06T17:55:50.825Z,75.10
2023-09-06T17:58:17.370Z,75.20
2023-09-06T18:00:43.901Z,75.30
2023-09-06T18:03:10.661Z,75.20
2023-09-06T18:05:37.453Z,75.30
2023-09-06T18:08:04.191Z,75.30
2023-09-06T18:10:30.724Z,75.20
2023-09-06T18:12:57.990Z,75.20
2023-09-06T18:15:24.513Z,75.30
2023-09-06T18:17:51.355Z,75.20
2023-09-06T18:20:17.915Z,75.20
2023-09-06T18:22:44.566Z,75.30
2023-09-06T18:25:11.086Z,75.20
2023-09-06T18:27:37.619Z,75.20
2023-09-06T18:30:04.184Z,75.20
2023-09-06T18:32:30.787Z,75.20
2023-09-06T18:34:57.362Z,75.20
2023-09-06T18:37:23.921Z,75.20
2023-09-06T18:39:50.479Z,75.20
2023-09-06T18:42:17.011Z,75.20
2023-09-06T18:44:43.538Z,75.20
2023-09-06T18:47:10.246Z,75.20
2023-09-06T18:49:36.909Z,75.20
2023-09-06T18:52:03.448Z,75.20
2023-09-06T18:54:29.970Z,75.20
2023-09-06T18:56:56.512Z,75.20
2023-09-06T18:59:23.095Z,75.30
2023-09-06T19:01:49.629Z,75.90
2023-09-06T19:04:16.203Z,75.30
2023-09-06T19:06:42.724Z,75.20
2023-09-06T19:09:09.350Z,75.20
2023-09-06T19:11:36.034Z,75.20
2023-09-06T19:14:02.643Z,75.20
2023-09-06T19:16:29.214Z,75.20
2023-09-06T19:18:55.747Z,75.20
2023-09-06T19:21:22.338Z,75.20
2023-09-06T19:23:48.933Z,75.20
2023-09-06T19:26:15.456Z,75.20
2023-09-06T19:28:41.935Z,75.20
2023-09-06T19:31:08.608Z,75.20
2023-09-06T19:33:35.171Z,75.90
2023-09-06T19:36:03.875Z,75.20
2023-09-06T19:38:30.645Z,75.30
2023-09-06T19:40:57.344Z,75.20
2023-09-06T19:43:23.881Z,75.30
2023-09-06T19:45:50.406Z,75.30
2023-09-06T19:48:16.994Z,75.30
2023-09-06T19:50:43.686Z,75.30
2023-09-06T19:53:17.805Z,75.40
2023-09-06T19:55:44.399Z,75.40
2023-09-06T19:58:10.920Z,75.40
2023-09-06T20:00:37.455Z,75.40
2023-09-06T20:03:04.266Z,75.40
2023-09-06T20:05:30.949Z,75.50
2023-09-06T20:07:57.479Z,75.50
2023-09-06T20:10:24.034Z,75.40
2023-09-06T20:12:50.546Z,75.50
2023-09-06T20:15:17.075Z,75.40
2023-09-06T20:17:45.152Z,75.50
2023-09-06T20:20:11.789Z,75.50
2023-09-06T20:22:38.304Z,75.50
2023-09-06T20:25:04.835Z,75.50
2023-09-06T20:27:31.366Z,75.50
2023-09-06T20:29:57.914Z,75.50
2023-09-06T20:32:24.510Z,75.60
2023-09-06T20:34:51.053Z,75.60
2023-09-06T20:37:17.568Z,75.60
2023-09-06T20:39:44.098Z,75.70
2023-09-06T20:42:10.660Z,75.70
2023-09-06T20:44:37.211Z,75.70
2023-09-06T20:47:03.748Z,75.70
2023-09-06T20:49:30.263Z,75.70
2023-09-06T20:51:56.776Z,75.80
2023-09-06T20:54:23.321Z,75.70
2023-09-06T20:56:49.845Z,75.70
2023-09-06T20:59:16.359Z,75.70
2023-09-06T21:01:42.903Z,75.70
2023-09-06T21:04:15.382Z,75.70
2023-09-06T21:06:41.967Z,75.70
2023-09-06T21:09:08.462Z,75.70
2023-09-06T21:11:35.027Z,75.70
2023-09-06T21:14:01.564Z,75.80
2023-09-06T21:16:30.372Z,75.80
2023-09-06T21:18:56.923Z,75.80
2023-09-06T21:21:23.534Z,75.80
2023-09-06T21:23:50.062Z,75.80
2023-09-06T21:26:16.654Z,75.80
2023-09-06T21:28:49.390Z,75.80
2023-09-06T21:31:15.985Z,75.80
2023-09-06T21:33:42.594Z,75.90
2023-09-06T21:36:09.203Z,75.80
2023-09-06T21:38:35.734Z,75.80
2023-09-06T21:41:02.247Z,75.80
2023-09-06T21:43:33.217Z,75.80
2023-09-06T21:45:59.742Z,75.80
2023-09-06T21:51:06.587Z,75.80
2023-09-06T21:53:33.116Z,75.80
2023-09-06T21:55:59.631Z,75.90
2023-09-06T21:58:26.166Z,75.80
2023-09-06T22:00:52.712Z,75.80
2023-09-06T22:03:19.319Z,75.80
2023-09-06T22:05:45.912Z,75.80
2023-09-06T22:08:12.590Z,75.80
2023-09-06T22:10:39.200Z,75.80
2023-09-06T22:13:06.313Z,75.80
2023-09-06T22:15:32.958Z,75.80
2023-09-06T22:17:59.493Z,75.80
2023-09-06T22:20:26.045Z,75.70
2023-09-06T22:22:52.576Z,75.80
2023-09-06T22:25:19.121Z,75.90
2023-09-06T22:27:51.212Z,75.90
2023-09-06T22:30:17.756Z,76.00
2023-09-06T22:32:44.295Z,76.00
2023-09-06T22:35:10.823Z,76.00
2023-09-06T22:37:37.408Z,76.10
2023-09-06T22:40:04.108Z,76.00
2023-09-06T22:42:30.640Z,76.00
2023-09-06T22:44:57.173Z,76.00
2023-09-06T22:47:23.865Z,76.10
2023-09-06T22:49:50.529Z,76.00
2023-09-06T22:52:17.117Z,76.00
2023-09-06T22:57:24.045Z,76.00
2023-09-06T22:59:50.567Z,76.00
2023-09-06T23:02:17.057Z,76.00
2023-09-06T23:04:43.622Z,76.00
2023-09-06T23:07:10.263Z,76.10
2023-09-06T23:09:36.818Z,76.10
2023-09-06T23:12:03.376Z,76.00
2023-09-06T23:14:29.883Z,76.10
2023-09-06T23:16:56.596Z,76.00
2023-09-06T23:19:23.274Z,76.00
2023-09-06T23:21:49.795Z,76.00
2023-09-06T23:24:16.314Z,76.00
2023-09-06T23:26:42.860Z,76.00
2023-09-06T23:29:09.669Z,76.00
2023-09-06T23:31:36.319Z,76.00
2023-09-06T23:34:03.023Z,75.90
2023-09-06T23:36:29.613Z,75.90
2023-09-06T23:38:56.128Z,75.90
2023-09-06T23:41:22.669Z,75.80
2023-09-06T23:43:51.350Z,75.70
2023-09-06T23:46:17.974Z,75.70
2023-09-06T23:48:45.238Z,75.50
2023-09-06T23:51:11.749Z,75.50
2023-09-06T23:53:40.377Z,75.50
2023-09-06T23:56:07.883Z,75.20
2023-09-06T23:58:34.704Z,75.50
